createdAt,value
2019-02-18T16:35:57.592Z,99718.50
2019-02-18T16:38:33.436Z,99711.70
2019-02-18T16:41:09.249Z,99712.77
2019-02-18T16:43:45.321Z,99722.38
2019-02-18T16:46:21.094Z,99728.73
2019-02-18T16:48:57.276Z,99732.22
2019-02-18T16:51:33.322Z,99724.89
2019-02-18T16:54:09.142Z,99733.85
2019-02-18T16:56:44.939Z,99731.78
2019-02-18T16:59:20.788Z,99731.67
2019-02-18T17:01:56.697Z,99732.05
2019-02-18T17:04:32.486Z,99727.84
2019-02-18T17:07:09.165Z,99736.36
2019-02-18T17:09:44.949Z,99735.94
2019-02-18T17:12:20.743Z,99734.21
2019-02-18T17:14:56.553Z,99729.08
2019-02-18T17:17:32.472Z,99725.36
2019-02-18T17:20:08.754Z,99728.77
2019-02-18T17:22:44.527Z,99725.22
2019-02-18T17:25:20.290Z,99725.97
2019-02-18T17:27:56.338Z,99720.21
2019-02-18T17:30:32.146Z,99723.79
2019-02-18T17:33:07.947Z,99725.01
2019-02-18T17:35:43.742Z,99725.38
2019-02-18T17:38:19.525Z,99720.80
2019-02-18T17:40:55.306Z,99722.93
2019-02-18T17:43:31.184Z,99714.91
2019-02-18T17:46:07.017Z,99721.03
2019-02-18T17:48:42.806Z,99725.08
2019-02-18T17:51:18.546Z,99722.55
2019-02-18T17:53:54.342Z,99714.53
2019-02-18T17:56:30.106Z,99712.22
2019-02-18T17:59:06.050Z,99709.10
2019-02-18T18:01:41.893Z,99712.66
2019-02-18T18:04:17.743Z,99709.46
2019-02-18T18:06:53.500Z,99709.13
2019-02-18T18:09:29.357Z,99697.12
2019-02-18T18:12:05.089Z,99699.70
2019-02-18T18:14:40.865Z,99699.09
2019-02-18T18:17:17.018Z,99691.55
2019-02-18T18:19:52.836Z,99689.56
2019-02-18T18:22:28.600Z,99692.94
2019-02-18T18:25:05.001Z,99696.20
2019-02-18T18:27:41.065Z,99687.63
2019-02-18T18:30:18.819Z,99688.80
2019-02-18T18:32:54.639Z,99689.14
2019-02-18T18:35:30.462Z,99692.02
2019-02-18T18:38:06.236Z,99689.59
2019-02-18T18:40:42.078Z,99692.58
2019-02-18T18:43:17.932Z,99685.86
2019-02-18T18:45:53.671Z,99690.06
2019-02-18T18:48:29.434Z,99687.80
2019-02-18T18:51:05.234Z,99681.72
2019-02-18T18:53:41.069Z,99684.81
2019-02-18T18:56:17.425Z,99684.28
2019-02-18T18:58:53.203Z,99687.15
2019-02-18T19:01:28.995Z,99681.28
2019-02-18T19:04:04.756Z,99680.44
2019-02-18T19:06:41.468Z,99680.97
2019-02-18T19:09:17.232Z,99674.56
2019-02-18T19:11:52.972Z,99683.99
2019-02-18T19:14:28.790Z,99678.91
2019-02-18T19:17:04.518Z,99678.00
2019-02-18T19:19:40.497Z,99685.31
2019-02-18T19:22:16.223Z,99675.63
2019-02-18T19:24:52.401Z,99680.70
2019-02-18T19:27:28.150Z,99678.27
2019-02-18T19:30:08.574Z,99676.16
2019-02-18T19:32:45.478Z,99680.44
2019-02-18T19:35:21.280Z,99678.06
2019-02-18T19:37:57.094Z,99671.12
2019-02-18T19:40:33.043Z,99677.56
2019-02-18T19:43:08.906Z,99677.45
2019-02-18T19:45:44.759Z,99679.84
2019-02-18T19:48:20.611Z,99678.88
2019-02-18T19:50:56.464Z,99679.55
2019-02-18T19:53:32.661Z,99677.52
2019-02-18T19:56:08.675Z,99674.70
2019-02-18T19:58:44.433Z,99681.14
2019-02-18T20:01:20.297Z,99679.93
2019-02-18T20:03:56.138Z,99679.08
2019-02-18T20:06:32.299Z,99678.89
2019-02-18T20:09:09.688Z,99679.09
2019-02-18T20:11:45.753Z,99679.38
2019-02-18T20:14:21.912Z,99671.66
2019-02-18T20:16:57.762Z,99674.03
2019-02-18T20:19:33.621Z,99672.98
2019-02-18T20:22:09.995Z,99667.24
2019-02-18T20:24:45.727Z,99675.36
2019-02-18T20:27:22.302Z,99666.50
2019-02-18T20:29:58.330Z,99663.80
2019-02-18T20:32:34.227Z,99677.40
2019-02-18T20:35:11.214Z,99670.73
2019-02-18T20:37:47.157Z,99666.83
2019-02-18T20:40:23.013Z,99663.80
2019-02-18T20:42:58.868Z,99661.54
2019-02-18T20:45:34.730Z,99667.71
2019-02-18T20:48:10.574Z,99659.51
2019-02-18T20:50:46.523Z,99665.59
2019-02-18T20:53:22.375Z,99666.64
2019-02-18T20:55:58.228Z,99662.12
2019-02-18T20:58:34.084Z,99665.89
2019-02-18T21:01:10.248Z,99662.31
2019-02-18T21:03:46.097Z,99658.06
2019-02-18T21:06:21.955Z,99657.69
2019-02-18T21:08:58.424Z,99658.06
2019-02-18T21:11:34.292Z,99650.22
2019-02-18T21:14:15.865Z,99646.91
2019-02-18T21:16:47.731Z,99646.50
2019-02-18T21:19:23.595Z,99647.09
2019-02-18T21:21:59.429Z,99649.27
2019-02-18T21:24:35.591Z,99651.95
2019-02-18T21:27:11.445Z,99649.64
2019-02-18T21:29:47.621Z,99644.48
2019-02-18T21:32:23.462Z,99645.09
2019-02-18T21:34:59.241Z,99641.70
2019-02-18T21:37:35.581Z,99644.42
2019-02-18T21:40:12.160Z,99643.75
2019-02-18T21:42:48.018Z,99637.80
2019-02-18T21:45:23.768Z,99634.48
2019-02-18T21:47:59.610Z,99632.92
2019-02-18T21:50:35.361Z,99633.47
2019-02-18T21:53:11.223Z,99629.52
2019-02-18T21:55:46.965Z,99634.16
2019-02-18T21:58:23.237Z,99636.34
2019-02-18T22:00:59.087Z,99637.48
2019-02-18T22:03:34.991Z,99631.88
2019-02-18T22:06:10.791Z,99628.05
2019-02-18T22:08:46.760Z,99627.32
2019-02-18T22:11:22.605Z,99623.07
2019-02-18T22:13:58.468Z,99625.24
2019-02-18T22:16:34.312Z,99626.56
2019-02-18T22:19:10.473Z,99621.88
2019-02-18T22:21:46.324Z,99625.83
2019-02-18T22:24:22.493Z,99623.66
2019-02-18T22:26:58.336Z,99623.53
2019-02-18T22:29:34.620Z,99620.39
2019-02-18T22:32:10.575Z,99616.44
2019-02-18T22:34:46.420Z,99616.14
2019-02-18T22:37:22.282Z,99611.16
2019-02-18T22:39:58.538Z,99617.63
2019-02-18T22:42:34.394Z,99610.17
2019-02-18T22:45:11.557Z,99609.29
2019-02-18T22:47:47.318Z,99609.89
2019-02-18T22:50:23.388Z,99608.56
2019-02-18T22:52:59.231Z,99614.87
2019-02-18T22:55:35.040Z,99612.09
2019-02-18T22:58:10.843Z,99616.27
2019-02-18T23:00:54.885Z,99610.31
2019-02-18T23:03:31.777Z,99610.91
2019-02-18T23:06:07.631Z,99610.60
2019-02-18T23:08:43.479Z,99607.75
2019-02-18T23:11:19.345Z,99600.94
2019-02-18T23:13:55.181Z,99605.79
2019-02-18T23:16:31.043Z,99605.91
2019-02-18T23:19:07.196Z,99599.02
2019-02-18T23:21:43.045Z,99600.92
2019-02-18T23:24:18.900Z,99596.55
2019-02-18T23:26:54.658Z,99598.76
2019-02-18T23:29:30.510Z,99602.80
2019-02-18T23:32:06.370Z,99605.44
2019-02-18T23:34:42.114Z,99599.73
2019-02-18T23:37:17.967Z,99594.34
2019-02-18T23:39:53.833Z,99597.70
2019-02-18T23:42:29.678Z,99589.71
2019-02-18T23:45:05.438Z,99588.78
2019-02-18T23:47:41.397Z,99592.27
2019-02-18T23:50:17.248Z,99587.42
2019-02-18T23:52:53.615Z,99583.90
2019-02-18T23:55:29.353Z,99581.73
2019-02-18T23:58:05.204Z,99579.60
